createdAt,value
2023-01-20T00:00:29.216Z,85.64
2023-01-20T00:10:50.583Z,85.86
2023-01-20T00:21:13.348Z,85.79
2023-01-20T00:31:36.163Z,85.95
2023-01-20T00:41:57.579Z,87.46
2023-01-20T00:52:18.960Z,88.29
2023-01-20T01:02:40.313Z,88.78
2023-01-20T01:13:02.711Z,88.85
2023-01-20T01:23:24.108Z,89.40
2023-01-20T01:33:45.460Z,90.33
2023-01-20T01:44:08.555Z,90.86
2023-01-20T01:54:33.041Z,90.00
2023-01-20T02:04:54.553Z,90.05
2023-01-20T02:15:17.003Z,90.75
2023-01-20T02:25:41.440Z,89.88
2023-01-20T02:36:05.919Z,89.85
2023-01-20T02:46:33.292Z,90.35
2023-01-20T02:56:56.950Z,89.06
2023-01-20T03:07:20.276Z,89.93
2023-01-20T03:17:41.742Z,88.58
2023-01-20T03:28:03.168Z,88.68
2023-01-20T03:38:24.572Z,88.87
2023-01-20T03:49:01.316Z,89.36
2023-01-20T03:59:23.556Z,88.38
2023-01-20T04:09:47.722Z,87.69
2023-01-20T04:20:10.400Z,88.01
2023-01-20T04:30:31.771Z,88.04
2023-01-20T04:40:53.217Z,87.63
2023-01-20T04:51:15.058Z,88.04
2023-01-20T05:01:36.575Z,87.97
2023-01-20T05:11:57.973Z,88.31
2023-01-20T05:22:19.376Z,88.56
2023-01-20T05:32:40.748Z,87.80
2023-01-20T05:43:02.618Z,87.53
2023-01-20T05:53:24.037Z,87.62
2023-01-20T06:03:45.438Z,87.98
2023-01-20T06:14:06.796Z,86.86
2023-01-20T06:24:28.177Z,86.87
2023-01-20T06:34:49.526Z,86.94
2023-01-20T06:45:10.997Z,86.41
2023-01-20T06:55:32.601Z,86.33
2023-01-20T07:05:58.988Z,86.25
2023-01-20T07:16:20.445Z,86.53
2023-01-20T07:26:41.906Z,85.83
2023-01-20T07:37:03.518Z,86.21
2023-01-20T07:47:24.884Z,84.92
2023-01-20T07:57:46.300Z,85.05
2023-01-20T08:08:07.651Z,85.05
2023-01-20T08:18:29.605Z,85.43
2023-01-20T08:28:51.279Z,84.99
2023-01-20T08:39:18.029Z,85.15
2023-01-20T08:49:39.408Z,84.65
2023-01-20T09:00:00.809Z,84.68
2023-01-20T09:10:22.267Z,83.53
2023-01-20T09:20:43.623Z,84.08
2023-01-20T09:31:07.376Z,83.20
2023-01-20T09:41:49.026Z,82.36
2023-01-20T09:52:32.140Z,82.11
2023-01-20T10:02:59.469Z,82.75
2023-01-20T10:13:33.186Z,82.06
2023-01-20T10:24:00.505Z,82.19
2023-01-20T10:34:22.550Z,81.77
2023-01-20T10:44:45.186Z,80.67
2023-01-20T10:55:09.633Z,82.04
2023-01-20T11:05:41.156Z,82.00
2023-01-20T11:16:04.717Z,82.23
2023-01-20T11:26:31.992Z,81.99
2023-01-20T11:37:05.608Z,81.16
2023-01-20T11:47:31.563Z,81.12
2023-01-20T11:58:02.487Z,81.26
2023-01-20T12:08:27.823Z,81.05
2023-01-20T12:19:02.239Z,80.59
2023-01-20T12:29:45.693Z,80.61
2023-01-20T12:40:07.313Z,80.75
2023-01-20T12:50:37.893Z,80.58
2023-01-20T13:01:08.345Z,80.08
2023-01-20T13:11:50.128Z,79.83
2023-01-20T13:22:21.862Z,79.67
2023-01-20T13:32:45.175Z,78.77
2023-01-20T13:43:25.386Z,79.40
2023-01-20T13:53:47.143Z,79.05
2023-01-20T14:04:15.995Z,79.13
2023-01-20T14:14:41.484Z,79.27
2023-01-20T14:25:03.544Z,79.54
2023-01-20T14:35:33.442Z,77.05
2023-01-20T14:45:54.909Z,79.64
2023-01-20T14:56:18.135Z,79.62
2023-01-20T15:06:39.507Z,78.77
2023-01-20T15:17:00.950Z,78.58
2023-01-20T15:27:27.153Z,78.83
2023-01-20T15:37:49.129Z,79.39
2023-01-20T15:48:15.096Z,80.29
2023-01-20T15:58:36.938Z,79.83
2023-01-20T16:09:00.141Z,80.42
2023-01-20T16:19:21.635Z,80.55
2023-01-20T16:29:43.082Z,80.98
2023-01-20T16:40:04.697Z,81.41
2023-01-20T16:50:28.261Z,81.09
2023-01-20T17:00:49.775Z,81.74
2023-01-20T17:11:11.345Z,82.92
2023-01-20T17:21:34.151Z,83.00
2023-01-20T17:31:55.670Z,82.70
2023-01-20T17:42:17.737Z,83.31
2023-01-20T17:52:39.270Z,83.17
2023-01-20T18:03:00.680Z,83.90
2023-01-20T18:13:22.040Z,84.03
2023-01-20T18:23:43.845Z,84.88
2023-01-20T18:34:06.383Z,84.69
2023-01-20T18:44:27.789Z,84.44
2023-01-20T18:54:49.123Z,84.38
2023-01-20T19:05:10.537Z,85.29
2023-01-20T19:15:33.663Z,84.78
2023-01-20T19:26:05.575Z,85.00
2023-01-20T19:36:26.971Z,85.82
2023-01-20T19:46:48.345Z,85.88
2023-01-20T19:57:09.775Z,86.03
2023-01-20T20:07:33.488Z,86.11
2023-01-20T20:17:54.875Z,86.11
2023-01-20T20:28:16.289Z,86.40
2023-01-20T20:38:39.428Z,86.85
2023-01-20T20:49:01.147Z,86.48
2023-01-20T20:59:24.658Z,86.65
2023-01-20T21:09:46.075Z,87.22
2023-01-20T21:20:07.889Z,87.43
2023-01-20T21:30:29.282Z,86.94
2023-01-20T21:41:09.917Z,87.14
2023-01-20T21:51:50.184Z,87.00
2023-01-20T22:02:12.575Z,86.71
2023-01-20T22:12:35.519Z,86.65
2023-01-20T22:22:56.877Z,87.56
2023-01-20T22:33:18.277Z,86.52
2023-01-20T22:43:41.097Z,87.52
2023-01-20T22:54:02.531Z,87.12
2023-01-20T23:04:23.939Z,86.77
2023-01-20T23:15:00.595Z,87.84
2023-01-20T23:25:21.964Z,87.06
2023-01-20T23:35:43.378Z,88.30
2023-01-20T23:46:06.203Z,87.46
2023-01-20T23:56:27.672Z,88.81
